sensor_id;sensor_type;location;lat;lon;timestamp;P1;durP1;ratioP1;P2;durP2;ratioP2
77146;SDS011;66121;52.584;9.694;2024-03-02T00:00:54;17.35;;;9.20;;
77146;SDS011;66121;52.584;9.694;2024-03-02T00:03:19;17.30;;;8.87;;
77146;SDS011;66121;52.584;9.694;2024-03-02T00:05:48;18.25;;;10.32;;
77146;SDS011;66121;52.584;9.694;2024-03-02T00:08:15;16.50;;;9.15;;
77146;SDS011;66121;52.584;9.694;2024-03-02T00:10:47;16.05;;;9.23;;
77146;SDS011;66121;52.584;9.694;2024-03-02T00:13:13;17.55;;;10.52;;
77146;SDS011;66121;52.584;9.694;2024-03-02T00:15:40;14.80;;;9.30;;
77146;SDS011;66121;52.584;9.694;2024-03-02T00:18:08;12.98;;;7.47;;
77146;SDS011;66121;52.584;9.694;2024-03-02T00:20:34;16.40;;;9.20;;
77146;SDS011;66121;52.584;9.694;2024-03-02T00:23:03;16.42;;;9.02;;
77146;SDS011;66121;52.584;9.694;2024-03-02T00:25:43;17.30;;;8.40;;
77146;SDS011;66121;52.584;9.694;2024-03-02T00:28:14;18.70;;;8.40;;
77146;SDS011;66121;52.584;9.694;2024-03-02T00:33:18;15.75;;;8.57;;
77146;SDS011;66121;52.584;9.694;2024-03-02T00:35:45;16.95;;;9.30;;
77146;SDS011;66121;52.584;9.694;2024-03-02T00:38:10;17.75;;;9.60;;
77146;SDS011;66121;52.584;9.694;2024-03-02T00:40:35;17.98;;;9.40;;
77146;SDS011;66121;52.584;9.694;2024-03-02T00:43:01;16.52;;;9.38;;
77146;SDS011;66121;52.584;9.694;2024-03-02T00:45:28;16.02;;;9.30;;
77146;SDS011;66121;52.584;9.694;2024-03-02T00:47:53;17.73;;;9.02;;
77146;SDS011;66121;52.584;9.694;2024-03-02T00:50:19;17.95;;;10.30;;
77146;SDS011;66121;52.584;9.694;2024-03-02T00:52:45;18.42;;;10.13;;
77146;SDS011;66121;52.584;9.694;2024-03-02T00:55:13;15.73;;;9.40;;
77146;SDS011;66121;52.584;9.694;2024-03-02T00:57:39;17.00;;;10.00;;
77146;SDS011;66121;52.584;9.694;2024-03-02T01:00:04;20.52;;;10.55;;
77146;SDS011;66121;52.584;9.694;2024-03-02T01:02:34;17.00;;;9.30;;
77146;SDS011;66121;52.584;9.694;2024-03-02T01:05:00;15.88;;;9.80;;
77146;SDS011;66121;52.584;9.694;2024-03-02T01:07:25;19.20;;;9.98;;
77146;SDS011;66121;52.584;9.694;2024-03-02T01:09:51;17.92;;;10.15;;
77146;SDS011;66121;52.584;9.694;2024-03-02T01:12:16;15.68;;;9.05;;
77146;SDS011;66121;52.584;9.694;2024-03-02T01:14:42;15.38;;;9.20;;
77146;SDS011;66121;52.584;9.694;2024-03-02T01:17:07;20.55;;;9.75;;
77146;SDS011;66121;52.584;9.694;2024-03-02T01:19:33;20.92;;;10.25;;
77146;SDS011;66121;52.584;9.694;2024-03-02T01:21:58;19.95;;;9.05;;
77146;SDS011;66121;52.584;9.694;2024-03-02T01:24:23;16.98;;;9.68;;
77146;SDS011;66121;52.584;9.694;2024-03-02T01:26:49;15.20;;;9.07;;
77146;SDS011;66121;52.584;9.694;2024-03-02T01:29:14;15.63;;;9.48;;
77146;SDS011;66121;52.584;9.694;2024-03-02T01:31:39;18.63;;;9.77;;
77146;SDS011;66121;52.584;9.694;2024-03-02T01:34:07;17.05;;;8.85;;
77146;SDS011;66121;52.584;9.694;2024-03-02T01:36:32;17.98;;;9.68;;
77146;SDS011;66121;52.584;9.694;2024-03-02T01:38:58;15.43;;;10.13;;
77146;SDS011;66121;52.584;9.694;2024-03-02T01:41:23;19.10;;;9.27;;
77146;SDS011;66121;52.584;9.694;2024-03-02T01:43:48;18.23;;;9.55;;
77146;SDS011;66121;52.584;9.694;2024-03-02T01:46:14;19.57;;;10.90;;
77146;SDS011;66121;52.584;9.694;2024-03-02T01:48:39;20.75;;;9.98;;
77146;SDS011;66121;52.584;9.694;2024-03-02T01:51:04;21.60;;;10.23;;
77146;SDS011;66121;52.584;9.694;2024-03-02T01:53:31;18.05;;;9.73;;
77146;SDS011;66121;52.584;9.694;2024-03-02T01:55:57;17.17;;;9.95;;
77146;SDS011;66121;52.584;9.694;2024-03-02T01:58:22;19.73;;;10.63;;
77146;SDS011;66121;52.584;9.694;2024-03-02T02:00:48;21.17;;;10.43;;
77146;SDS011;66121;52.584;9.694;2024-03-02T02:03:13;21.85;;;11.73;;
77146;SDS011;66121;52.584;9.694;2024-03-02T02:05:38;19.92;;;10.63;;
77146;SDS011;66121;52.584;9.694;2024-03-02T02:08:04;19.48;;;10.48;;
77146;SDS011;66121;52.584;9.694;2024-03-02T02:10:30;23.58;;;12.27;;
77146;SDS011;66121;52.584;9.694;2024-03-02T02:12:56;22.33;;;11.32;;
77146;SDS011;66121;52.584;9.694;2024-03-02T02:15:25;21.48;;;11.63;;
77146;SDS011;66121;52.584;9.694;2024-03-02T02:17:52;19.83;;;11.95;;
77146;SDS011;66121;52.584;9.694;2024-03-02T02:20:18;19.85;;;11.20;;
77146;SDS011;66121;52.584;9.694;2024-03-02T02:22:56;24.52;;;12.38;;
77146;SDS011;66121;52.584;9.694;2024-03-02T02:25:23;20.10;;;11.30;;
77146;SDS011;66121;52.584;9.694;2024-03-02T02:27:48;22.83;;;12.52;;
77146;SDS011;66121;52.584;9.694;2024-03-02T02:30:14;20.50;;;12.45;;
77146;SDS011;66121;52.584;9.694;2024-03-02T02:32:43;21.92;;;12.57;;
77146;SDS011;66121;52.584;9.694;2024-03-02T02:35:09;23.27;;;11.73;;
77146;SDS011;66121;52.584;9.694;2024-03-02T02:37:34;24.60;;;13.53;;
77146;SDS011;66121;52.584;9.694;2024-03-02T02:39:59;21.27;;;11.97;;
77146;SDS011;66121;52.584;9.694;2024-03-02T02:42:25;23.42;;;12.35;;
77146;SDS011;66121;52.584;9.694;2024-03-02T02:44:50;23.37;;;12.30;;
77146;SDS011;66121;52.584;9.694;2024-03-02T02:47:15;22.73;;;11.60;;
77146;SDS011;66121;52.584;9.694;2024-03-02T02:49:41;22.52;;;12.07;;
77146;SDS011;66121;52.584;9.694;2024-03-02T02:52:07;22.27;;;11.38;;
77146;SDS011;66121;52.584;9.694;2024-03-02T02:54:32;21.37;;;11.67;;
77146;SDS011;66121;52.584;9.694;2024-03-02T02:56:57;21.43;;;12.00;;
77146;SDS011;66121;52.584;9.694;2024-03-02T02:59:22;22.20;;;11.70;;
77146;SDS011;66121;52.584;9.694;2024-03-02T03:01:48;25.03;;;12.90;;
77146;SDS011;66121;52.584;9.694;2024-03-02T03:04:13;27.15;;;11.82;;
77146;SDS011;66121;52.584;9.694;2024-03-02T03:06:39;24.52;;;13.15;;
77146;SDS011;66121;52.584;9.694;2024-03-02T03:09:04;25.27;;;12.97;;
77146;SDS011;66121;52.584;9.694;2024-03-02T03:11:29;24.37;;;11.97;;
77146;SDS011;66121;52.584;9.694;2024-03-02T03:13:55;24.65;;;12.30;;
77146;SDS011;66121;52.584;9.694;2024-03-02T03:16:20;27.42;;;13.10;;
77146;SDS011;66121;52.584;9.694;2024-03-02T03:18:46;23.98;;;11.35;;
77146;SDS011;66121;52.584;9.694;2024-03-02T03:21:11;29.03;;;12.93;;
77146;SDS011;66121;52.584;9.694;2024-03-02T03:23:36;26.67;;;13.33;;
77146;SDS011;66121;52.584;9.694;2024-03-02T03:26:02;25.30;;;13.93;;
77146;SDS011;66121;52.584;9.694;2024-03-02T03:28:28;27.85;;;12.98;;
77146;SDS011;66121;52.584;9.694;2024-03-02T03:30:53;29.52;;;14.13;;
77146;SDS011;66121;52.584;9.694;2024-03-02T03:33:18;22.03;;;12.20;;
77146;SDS011;66121;52.584;9.694;2024-03-02T03:35:44;23.67;;;13.00;;
77146;SDS011;66121;52.584;9.694;2024-03-02T03:38:09;26.67;;;13.63;;
77146;SDS011;66121;52.584;9.694;2024-03-02T03:40:34;28.37;;;13.50;;
77146;SDS011;66121;52.584;9.694;2024-03-02T03:43:00;27.57;;;13.57;;
77146;SDS011;66121;52.584;9.694;2024-03-02T03:45:25;24.80;;;12.63;;
77146;SDS011;66121;52.584;9.694;2024-03-02T03:47:51;25.92;;;12.05;;
77146;SDS011;66121;52.584;9.694;2024-03-02T03:50:17;28.23;;;13.77;;
77146;SDS011;66121;52.584;9.694;2024-03-02T03:52:43;29.13;;;13.85;;
77146;SDS011;66121;52.584;9.694;2024-03-02T03:55:08;27.02;;;13.13;;
77146;SDS011;66121;52.584;9.694;2024-03-02T03:57:35;30.35;;;13.60;;
77146;SDS011;66121;52.584;9.694;2024-03-02T04:00:00;29.23;;;13.73;;
77146;SDS011;66121;52.584;9.694;2024-03-02T04:02:26;28.67;;;13.27;;
77146;SDS011;66121;52.584;9.694;2024-03-02T04:04:51;29.43;;;13.90;;
77146;SDS011;66121;52.584;9.694;2024-03-02T04:07:16;26.35;;;12.30;;
77146;SDS011;66121;52.584;9.694;2024-03-02T04:09:42;26.70;;;12.40;;
77146;SDS011;66121;52.584;9.694;2024-03-02T04:12:07;28.23;;;13.63;;
77146;SDS011;66121;52.584;9.694;2024-03-02T04:14:33;27.40;;;13.90;;
77146;SDS011;66121;52.584;9.694;2024-03-02T04:16:58;27.57;;;13.80;;
77146;SDS011;66121;52.584;9.694;2024-03-02T04:19:23;27.07;;;13.67;;
77146;SDS011;66121;52.584;9.694;2024-03-02T04:21:49;26.98;;;13.25;;
77146;SDS011;66121;52.584;9.694;2024-03-02T04:24:14;26.13;;;12.95;;
77146;SDS011;66121;52.584;9.694;2024-03-02T04:26:39;27.40;;;13.18;;
77146;SDS011;66121;52.584;9.694;2024-03-02T04:29:05;24.20;;;11.43;;
77146;SDS011;66121;52.584;9.694;2024-03-02T04:31:30;21.70;;;12.17;;
77146;SDS011;66121;52.584;9.694;2024-03-02T04:33:55;27.67;;;12.43;;
77146;SDS011;66121;52.584;9.694;2024-03-02T04:36:21;24.67;;;12.83;;
77146;SDS011;66121;52.584;9.694;2024-03-02T04:38:46;29.63;;;12.88;;
77146;SDS011;66121;52.584;9.694;2024-03-02T04:41:12;27.63;;;14.15;;
77146;SDS011;66121;52.584;9.694;2024-03-02T04:43:37;28.02;;;12.07;;
77146;SDS011;66121;52.584;9.694;2024-03-02T04:46:03;26.65;;;12.20;;
77146;SDS011;66121;52.584;9.694;2024-03-02T04:48:28;23.83;;;11.70;;
77146;SDS011;66121;52.584;9.694;2024-03-02T04:50:54;28.40;;;12.25;;
77146;SDS011;66121;52.584;9.694;2024-03-02T04:53:19;29.33;;;13.02;;
77146;SDS011;66121;52.584;9.694;2024-03-02T04:55:44;29.23;;;12.60;;
77146;SDS011;66121;52.584;9.694;2024-03-02T04:58:18;26.25;;;12.70;;
77146;SDS011;66121;52.584;9.694;2024-03-02T05:00:44;24.42;;;12.10;;
77146;SDS011;66121;52.584;9.694;2024-03-02T05:03:11;26.63;;;12.48;;
77146;SDS011;66121;52.584;9.694;2024-03-02T05:05:36;29.10;;;12.48;;
77146;SDS011;66121;52.584;9.694;2024-03-02T05:08:03;28.27;;;13.65;;
77146;SDS011;66121;52.584;9.694;2024-03-02T05:10:29;24.55;;;13.32;;
77146;SDS011;66121;52.584;9.694;2024-03-02T05:12:54;29.23;;;13.50;;
77146;SDS011;66121;52.584;9.694;2024-03-02T05:15:25;26.77;;;12.57;;
77146;SDS011;66121;52.584;9.694;2024-03-02T05:17:51;27.88;;;13.02;;
77146;SDS011;66121;52.584;9.694;2024-03-02T05:20:16;27.80;;;12.60;;
77146;SDS011;66121;52.584;9.694;2024-03-02T05:22:42;25.30;;;12.95;;
77146;SDS011;66121;52.584;9.694;2024-03-02T05:25:07;34.20;;;14.30;;
77146;SDS011;66121;52.584;9.694;2024-03-02T05:27:34;26.98;;;13.07;;
77146;SDS011;66121;52.584;9.694;2024-03-02T05:30:00;30.10;;;14.13;;
77146;SDS011;66121;52.584;9.694;2024-03-02T05:32:25;29.45;;;13.23;;
77146;SDS011;66121;52.584;9.694;2024-03-02T05:34:50;26.33;;;12.45;;
77146;SDS011;66121;52.584;9.694;2024-03-02T05:37:16;30.23;;;14.52;;
77146;SDS011;66121;52.584;9.694;2024-03-02T05:39:42;25.05;;;12.68;;
77146;SDS011;66121;52.584;9.694;2024-03-02T05:42:08;28.70;;;13.60;;
77146;SDS011;66121;52.584;9.694;2024-03-02T05:44:34;30.42;;;12.73;;
77146;SDS011;66121;52.584;9.694;2024-03-02T05:46:59;29.25;;;13.45;;
77146;SDS011;66121;52.584;9.694;2024-03-02T05:49:25;31.67;;;13.68;;
77146;SDS011;66121;52.584;9.694;2024-03-02T05:51:50;28.70;;;12.87;;
77146;SDS011;66121;52.584;9.694;2024-03-02T05:54:15;30.23;;;13.87;;
77146;SDS011;66121;52.584;9.694;2024-03-02T05:56:41;31.40;;;13.40;;
77146;SDS011;66121;52.584;9.694;2024-03-02T05:59:06;27.73;;;12.32;;
77146;SDS011;66121;52.584;9.694;2024-03-02T06:01:41;31.25;;;14.63;;
77146;SDS011;66121;52.584;9.694;2024-03-02T06:04:07;27.83;;;13.18;;
77146;SDS011;66121;52.584;9.694;2024-03-02T06:06:33;31.98;;;15.10;;
77146;SDS011;66121;52.584;9.694;2024-03-02T06:08:59;29.40;;;14.98;;
77146;SDS011;66121;52.584;9.694;2024-03-02T06:11:25;30.30;;;14.32;;
77146;SDS011;66121;52.584;9.694;2024-03-02T06:13:51;27.77;;;12.60;;
77146;SDS011;66121;52.584;9.694;2024-03-02T06:16:16;32.37;;;15.17;;
77146;SDS011;66121;52.584;9.694;2024-03-02T06:18:41;27.97;;;13.40;;
77146;SDS011;66121;52.584;9.694;2024-03-02T06:21:06;37.47;;;14.93;;
77146;SDS011;66121;52.584;9.694;2024-03-02T06:23:33;34.50;;;15.27;;
77146;SDS011;66121;52.584;9.694;2024-03-02T06:25:58;28.55;;;13.43;;
77146;SDS011;66121;52.584;9.694;2024-03-02T06:28:23;26.45;;;12.90;;
77146;SDS011;66121;52.584;9.694;2024-03-02T06:30:49;31.57;;;14.90;;
77146;SDS011;66121;52.584;9.694;2024-03-02T06:33:14;23.83;;;11.90;;
77146;SDS011;66121;52.584;9.694;2024-03-02T06:35:39;33.00;;;13.75;;
77146;SDS011;66121;52.584;9.694;2024-03-02T06:38:06;30.10;;;15.70;;
77146;SDS011;66121;52.584;9.694;2024-03-02T06:40:31;29.37;;;13.93;;
77146;SDS011;66121;52.584;9.694;2024-03-02T06:42:56;29.58;;;14.20;;
77146;SDS011;66121;52.584;9.694;2024-03-02T06:45:22;28.27;;;13.73;;
77146;SDS011;66121;52.584;9.694;2024-03-02T06:47:47;32.30;;;14.37;;
77146;SDS011;66121;52.584;9.694;2024-03-02T06:50:12;31.42;;;15.68;;
77146;SDS011;66121;52.584;9.694;2024-03-02T06:52:38;32.25;;;14.88;;
77146;SDS011;66121;52.584;9.694;2024-03-02T06:55:03;33.38;;;14.68;;
77146;SDS011;66121;52.584;9.694;2024-03-02T06:57:29;28.73;;;11.98;;
77146;SDS011;66121;52.584;9.694;2024-03-02T06:59:55;35.53;;;15.50;;
77146;SDS011;66121;52.584;9.694;2024-03-02T07:02:23;35.97;;;15.75;;
77146;SDS011;66121;52.584;9.694;2024-03-02T07:04:52;29.85;;;13.65;;
77146;SDS011;66121;52.584;9.694;2024-03-02T07:07:19;44.33;;;18.95;;
77146;SDS011;66121;52.584;9.694;2024-03-02T07:09:44;30.02;;;14.38;;
77146;SDS011;66121;52.584;9.694;2024-03-02T07:12:10;33.92;;;16.33;;
77146;SDS011;66121;52.584;9.694;2024-03-02T07:14:35;30.13;;;14.63;;
77146;SDS011;66121;52.584;9.694;2024-03-02T07:17:35;41.67;;;19.42;;
77146;SDS011;66121;52.584;9.694;2024-03-02T07:20:02;29.33;;;13.38;;
77146;SDS011;66121;52.584;9.694;2024-03-02T07:22:28;45.67;;;19.80;;
77146;SDS011;66121;52.584;9.694;2024-03-02T07:24:54;30.90;;;14.10;;
77146;SDS011;66121;52.584;9.694;2024-03-02T07:27:19;35.73;;;16.07;;
77146;SDS011;66121;52.584;9.694;2024-03-02T07:29:44;34.33;;;15.63;;
77146;SDS011;66121;52.584;9.694;2024-03-02T07:32:10;38.90;;;16.37;;
77146;SDS011;66121;52.584;9.694;2024-03-02T07:34:36;32.13;;;15.70;;
77146;SDS011;66121;52.584;9.694;2024-03-02T07:37:02;35.97;;;16.20;;
77146;SDS011;66121;52.584;9.694;2024-03-02T07:39:28;34.88;;;15.50;;
77146;SDS011;66121;52.584;9.694;2024-03-02T07:41:54;34.78;;;14.70;;
77146;SDS011;66121;52.584;9.694;2024-03-02T07:44:20;31.05;;;15.27;;
77146;SDS011;66121;52.584;9.694;2024-03-02T07:46:46;28.13;;;13.20;;
77146;SDS011;66121;52.584;9.694;2024-03-02T07:49:12;30.65;;;14.30;;
77146;SDS011;66121;52.584;9.694;2024-03-02T07:51:41;40.28;;;14.52;;
77146;SDS011;66121;52.584;9.694;2024-03-02T07:54:07;37.08;;;16.42;;
77146;SDS011;66121;52.584;9.694;2024-03-02T07:56:32;32.60;;;14.90;;
77146;SDS011;66121;52.584;9.694;2024-03-02T07:58:58;26.00;;;13.02;;
77146;SDS011;66121;52.584;9.694;2024-03-02T08:01:29;31.73;;;14.68;;
77146;SDS011;66121;52.584;9.694;2024-03-02T08:03:58;32.35;;;14.35;;
77146;SDS011;66121;52.584;9.694;2024-03-02T08:06:28;31.70;;;15.68;;
77146;SDS011;66121;52.584;9.694;2024-03-02T08:08:59;31.75;;;15.63;;
77146;SDS011;66121;52.584;9.694;2024-03-02T08:11:25;27.13;;;12.60;;
77146;SDS011;66121;52.584;9.694;2024-03-02T08:13:52;29.10;;;13.57;;
77146;SDS011;66121;52.584;9.694;2024-03-02T08:16:19;27.70;;;13.70;;
77146;SDS011;66121;52.584;9.694;2024-03-02T08:18:49;32.10;;;15.30;;
77146;SDS011;66121;52.584;9.694;2024-03-02T08:21:14;25.30;;;11.90;;
77146;SDS011;66121;52.584;9.694;2024-03-02T08:23:40;25.95;;;12.52;;
77146;SDS011;66121;52.584;9.694;2024-03-02T08:26:07;24.30;;;11.27;;
77146;SDS011;66121;52.584;9.694;2024-03-02T08:28:36;30.20;;;13.82;;
77146;SDS011;66121;52.584;9.694;2024-03-02T08:33:33;28.47;;;12.87;;
77146;SDS011;66121;52.584;9.694;2024-03-02T08:35:58;24.10;;;11.75;;
77146;SDS011;66121;52.584;9.694;2024-03-02T08:38:24;27.35;;;12.10;;
77146;SDS011;66121;52.584;9.694;2024-03-02T08:40:49;28.00;;;13.10;;
77146;SDS011;66121;52.584;9.694;2024-03-02T08:43:15;31.88;;;15.88;;
77146;SDS011;66121;52.584;9.694;2024-03-02T08:45:41;24.42;;;11.38;;
77146;SDS011;66121;52.584;9.694;2024-03-02T08:48:09;31.35;;;13.20;;
77146;SDS011;66121;52.584;9.694;2024-03-02T08:50:35;27.08;;;12.25;;
77146;SDS011;66121;52.584;9.694;2024-03-02T08:53:01;24.48;;;13.25;;
77146;SDS011;66121;52.584;9.694;2024-03-02T08:55:28;26.42;;;12.13;;
77146;SDS011;66121;52.584;9.694;2024-03-02T08:57:53;22.83;;;11.60;;
77146;SDS011;66121;52.584;9.694;2024-03-02T09:00:19;26.17;;;12.50;;
77146;SDS011;66121;52.584;9.694;2024-03-02T09:02:45;26.42;;;13.10;;
77146;SDS011;66121;52.584;9.694;2024-03-02T09:05:10;20.85;;;10.50;;
77146;SDS011;66121;52.584;9.694;2024-03-02T09:07:36;23.02;;;11.93;;
77146;SDS011;66121;52.584;9.694;2024-03-02T09:10:03;22.35;;;11.45;;
77146;SDS011;66121;52.584;9.694;2024-03-02T09:12:29;19.40;;;10.38;;
77146;SDS011;66121;52.584;9.694;2024-03-02T09:14:55;20.30;;;10.00;;
77146;SDS011;66121;52.584;9.694;2024-03-02T09:17:20;18.50;;;8.85;;
77146;SDS011;66121;52.584;9.694;2024-03-02T09:19:45;18.58;;;9.10;;
77146;SDS011;66121;52.584;9.694;2024-03-02T09:22:11;21.42;;;10.70;;
77146;SDS011;66121;52.584;9.694;2024-03-02T09:24:36;18.92;;;9.48;;
77146;SDS011;66121;52.584;9.694;2024-03-02T09:27:01;20.93;;;10.13;;
77146;SDS011;66121;52.584;9.694;2024-03-02T09:29:27;16.25;;;7.85;;
77146;SDS011;66121;52.584;9.694;2024-03-02T09:31:52;22.85;;;10.55;;
77146;SDS011;66121;52.584;9.694;2024-03-02T09:34:17;20.63;;;10.33;;
77146;SDS011;66121;52.584;9.694;2024-03-02T09:36:43;21.55;;;10.57;;
77146;SDS011;66121;52.584;9.694;2024-03-02T09:39:08;15.88;;;7.90;;
77146;SDS011;66121;52.584;9.694;2024-03-02T09:41:37;19.77;;;9.93;;
77146;SDS011;66121;52.584;9.694;2024-03-02T09:44:03;17.73;;;9.05;;
77146;SDS011;66121;52.584;9.694;2024-03-02T09:46:30;18.83;;;9.77;;
77146;SDS011;66121;52.584;9.694;2024-03-02T09:48:55;21.55;;;10.02;;
77146;SDS011;66121;52.584;9.694;2024-03-02T09:51:21;18.17;;;10.15;;
77146;SDS011;66121;52.584;9.694;2024-03-02T09:53:47;19.70;;;7.72;;
77146;SDS011;66121;52.584;9.694;2024-03-02T09:56:13;18.63;;;9.23;;
77146;SDS011;66121;52.584;9.694;2024-03-02T09:58:38;20.37;;;10.30;;
77146;SDS011;66121;52.584;9.694;2024-03-02T10:01:07;21.27;;;9.77;;
77146;SDS011;66121;52.584;9.694;2024-03-02T10:03:33;20.17;;;8.82;;
77146;SDS011;66121;52.584;9.694;2024-03-02T10:08:53;20.38;;;9.65;;
77146;SDS011;66121;52.584;9.694;2024-03-02T10:11:29;20.40;;;9.98;;
77146;SDS011;66121;52.584;9.694;2024-03-02T10:14:08;19.13;;;9.13;;
77146;SDS011;66121;52.584;9.694;2024-03-02T10:16:38;17.23;;;10.10;;
77146;SDS011;66121;52.584;9.694;2024-03-02T10:19:29;20.77;;;10.85;;
77146;SDS011;66121;52.584;9.694;2024-03-02T10:21:57;19.48;;;9.88;;
77146;SDS011;66121;52.584;9.694;2024-03-02T10:24:23;17.55;;;8.07;;
77146;SDS011;66121;52.584;9.694;2024-03-02T10:26:49;20.42;;;10.50;;
77146;SDS011;66121;52.584;9.694;2024-03-02T10:29:15;18.50;;;8.65;;
77146;SDS011;66121;52.584;9.694;2024-03-02T10:31:44;19.73;;;9.68;;
77146;SDS011;66121;52.584;9.694;2024-03-02T10:34:13;16.98;;;9.20;;
77146;SDS011;66121;52.584;9.694;2024-03-02T10:36:42;16.80;;;8.23;;
77146;SDS011;66121;52.584;9.694;2024-03-02T10:39:10;16.30;;;9.18;;
77146;SDS011;66121;52.584;9.694;2024-03-02T10:41:38;15.45;;;8.95;;
77146;SDS011;66121;52.584;9.694;2024-03-02T10:44:04;17.73;;;9.02;;
77146;SDS011;66121;52.584;9.694;2024-03-02T10:46:31;15.70;;;7.85;;
77146;SDS011;66121;52.584;9.694;2024-03-02T10:48:59;17.73;;;8.73;;
77146;SDS011;66121;52.584;9.694;2024-03-02T10:51:26;16.27;;;8.48;;
77146;SDS011;66121;52.584;9.694;2024-03-02T10:53:53;20.80;;;9.15;;
77146;SDS011;66121;52.584;9.694;2024-03-02T10:56:27;17.73;;;8.93;;
77146;SDS011;66121;52.584;9.694;2024-03-02T11:01:31;15.13;;;8.50;;
77146;SDS011;66121;52.584;9.694;2024-03-02T11:03:58;14.85;;;8.77;;
77146;SDS011;66121;52.584;9.694;2024-03-02T11:06:24;16.58;;;8.23;;
77146;SDS011;66121;52.584;9.694;2024-03-02T11:08:53;14.48;;;7.63;;
77146;SDS011;66121;52.584;9.694;2024-03-02T11:11:26;15.10;;;7.30;;
77146;SDS011;66121;52.584;9.694;2024-03-02T11:13:54;14.30;;;8.18;;
77146;SDS011;66121;52.584;9.694;2024-03-02T11:16:34;16.83;;;7.72;;
77146;SDS011;66121;52.584;9.694;2024-03-02T11:19:04;17.48;;;8.40;;
77146;SDS011;66121;52.584;9.694;2024-03-02T11:21:31;16.73;;;8.18;;
77146;SDS011;66121;52.584;9.694;2024-03-02T11:24:00;14.68;;;7.70;;
77146;SDS011;66121;52.584;9.694;2024-03-02T11:26:27;16.50;;;7.15;;
77146;SDS011;66121;52.584;9.694;2024-03-02T11:28:53;12.23;;;6.63;;
77146;SDS011;66121;52.584;9.694;2024-03-02T11:31:21;12.30;;;6.53;;
77146;SDS011;66121;52.584;9.694;2024-03-02T11:33:46;13.50;;;6.78;;
77146;SDS011;66121;52.584;9.694;2024-03-02T11:36:11;14.32;;;6.95;;
77146;SDS011;66121;52.584;9.694;2024-03-02T11:38:37;10.48;;;6.15;;
77146;SDS011;66121;52.584;9.694;2024-03-02T11:41:03;13.30;;;6.32;;
77146;SDS011;66121;52.584;9.694;2024-03-02T11:43:33;11.40;;;6.35;;
77146;SDS011;66121;52.584;9.694;2024-03-02T11:46:04;11.35;;;6.75;;
77146;SDS011;66121;52.584;9.694;2024-03-02T11:48:32;12.27;;;6.30;;
77146;SDS011;66121;52.584;9.694;2024-03-02T11:50:58;10.73;;;5.85;;
77146;SDS011;66121;52.584;9.694;2024-03-02T11:53:25;11.65;;;5.88;;
77146;SDS011;66121;52.584;9.694;2024-03-02T11:55:52;9.38;;;4.78;;
77146;SDS011;66121;52.584;9.694;2024-03-02T11:58:20;9.75;;;5.57;;
77146;SDS011;66121;52.584;9.694;2024-03-02T12:00:52;10.30;;;5.47;;
77146;SDS011;66121;52.584;9.694;2024-03-02T12:03:18;9.98;;;5.93;;
77146;SDS011;66121;52.584;9.694;2024-03-02T12:05:48;13.85;;;6.15;;
77146;SDS011;66121;52.584;9.694;2024-03-02T12:08:14;8.75;;;5.05;;
77146;SDS011;66121;52.584;9.694;2024-03-02T12:10:40;9.88;;;6.15;;
77146;SDS011;66121;52.584;9.694;2024-03-02T12:13:06;9.18;;;5.05;;
77146;SDS011;66121;52.584;9.694;2024-03-02T12:15:35;8.00;;;4.65;;
77146;SDS011;66121;52.584;9.694;2024-03-02T12:18:02;13.52;;;5.85;;
77146;SDS011;66121;52.584;9.694;2024-03-02T12:20:28;8.35;;;5.20;;
77146;SDS011;66121;52.584;9.694;2024-03-02T12:22:56;7.10;;;4.45;;
77146;SDS011;66121;52.584;9.694;2024-03-02T12:25:23;9.18;;;4.60;;
77146;SDS011;66121;52.584;9.694;2024-03-02T12:27:50;9.15;;;4.60;;
77146;SDS011;66121;52.584;9.694;2024-03-02T12:30:16;8.45;;;4.43;;
77146;SDS011;66121;52.584;9.694;2024-03-02T12:32:43;7.25;;;3.95;;
77146;SDS011;66121;52.584;9.694;2024-03-02T12:35:10;7.32;;;4.43;;
77146;SDS011;66121;52.584;9.694;2024-03-02T12:37:46;10.35;;;4.53;;
77146;SDS011;66121;52.584;9.694;2024-03-02T12:40:13;7.93;;;4.68;;
77146;SDS011;66121;52.584;9.694;2024-03-02T12:42:40;10.25;;;4.63;;
77146;SDS011;66121;52.584;9.694;2024-03-02T12:45:06;8.05;;;4.82;;
77146;SDS011;66121;52.584;9.694;2024-03-02T12:47:35;9.52;;;4.55;;
77146;SDS011;66121;52.584;9.694;2024-03-02T12:50:01;8.75;;;4.63;;
77146;SDS011;66121;52.584;9.694;2024-03-02T12:52:28;10.05;;;5.68;;
77146;SDS011;66121;52.584;9.694;2024-03-02T12:54:54;8.98;;;4.50;;
77146;SDS011;66121;52.584;9.694;2024-03-02T12:57:25;6.75;;;3.70;;
77146;SDS011;66121;52.584;9.694;2024-03-02T12:59:52;9.43;;;4.15;;
77146;SDS011;66121;52.584;9.694;2024-03-02T13:02:17;8.43;;;3.75;;
77146;SDS011;66121;52.584;9.694;2024-03-02T13:04:43;6.20;;;3.92;;
77146;SDS011;66121;52.584;9.694;2024-03-02T13:07:09;8.15;;;4.18;;
77146;SDS011;66121;52.584;9.694;2024-03-02T13:09:35;8.50;;;4.88;;
77146;SDS011;66121;52.584;9.694;2024-03-02T13:12:01;6.05;;;3.67;;
77146;SDS011;66121;52.584;9.694;2024-03-02T13:14:28;9.02;;;4.93;;
77146;SDS011;66121;52.584;9.694;2024-03-02T13:16:53;8.45;;;3.63;;
77146;SDS011;66121;52.584;9.694;2024-03-02T13:19:19;6.30;;;4.00;;
77146;SDS011;66121;52.584;9.694;2024-03-02T13:21:44;8.30;;;3.67;;
77146;SDS011;66121;52.584;9.694;2024-03-02T13:24:09;7.38;;;3.78;;
77146;SDS011;66121;52.584;9.694;2024-03-02T13:26:35;6.38;;;3.55;;
77146;SDS011;66121;52.584;9.694;2024-03-02T13:29:00;8.15;;;3.38;;
77146;SDS011;66121;52.584;9.694;2024-03-02T13:31:26;6.95;;;3.42;;
77146;SDS011;66121;52.584;9.694;2024-03-02T13:33:51;6.72;;;3.53;;
77146;SDS011;66121;52.584;9.694;2024-03-02T13:36:16;4.82;;;3.38;;
77146;SDS011;66121;52.584;9.694;2024-03-02T13:38:43;4.90;;;3.13;;
77146;SDS011;66121;52.584;9.694;2024-03-02T13:41:08;5.88;;;3.17;;
77146;SDS011;66121;52.584;9.694;2024-03-02T13:43:34;5.43;;;2.97;;
77146;SDS011;66121;52.584;9.694;2024-03-02T13:46:00;5.43;;;3.28;;
77146;SDS011;66121;52.584;9.694;2024-03-02T13:48:27;5.25;;;3.00;;
77146;SDS011;66121;52.584;9.694;2024-03-02T13:50:52;6.47;;;2.65;;
77146;SDS011;66121;52.584;9.694;2024-03-02T13:53:18;6.45;;;2.65;;
77146;SDS011;66121;52.584;9.694;2024-03-02T13:55:44;4.45;;;2.80;;
77146;SDS011;66121;52.584;9.694;2024-03-02T13:58:10;5.55;;;2.65;;
77146;SDS011;66121;52.584;9.694;2024-03-02T14:00:36;5.95;;;3.47;;
77146;SDS011;66121;52.584;9.694;2024-03-02T14:03:03;9.00;;;4.57;;
77146;SDS011;66121;52.584;9.694;2024-03-02T14:05:30;6.63;;;4.15;;
77146;SDS011;66121;52.584;9.694;2024-03-02T14:07:56;7.95;;;3.95;;
77146;SDS011;66121;52.584;9.694;2024-03-02T14:10:21;7.93;;;4.18;;
77146;SDS011;66121;52.584;9.694;2024-03-02T14:12:48;6.50;;;4.03;;
77146;SDS011;66121;52.584;9.694;2024-03-02T14:15:13;11.65;;;4.95;;
77146;SDS011;66121;52.584;9.694;2024-03-02T14:17:39;7.78;;;4.80;;
77146;SDS011;66121;52.584;9.694;2024-03-02T14:20:04;7.05;;;3.92;;
77146;SDS011;66121;52.584;9.694;2024-03-02T14:22:30;8.00;;;4.05;;
77146;SDS011;66121;52.584;9.694;2024-03-02T14:24:56;5.50;;;2.85;;
77146;SDS011;66121;52.584;9.694;2024-03-02T14:27:22;6.75;;;3.35;;
77146;SDS011;66121;52.584;9.694;2024-03-02T14:29:47;6.47;;;3.60;;
77146;SDS011;66121;52.584;9.694;2024-03-02T14:32:13;5.68;;;3.38;;
77146;SDS011;66121;52.584;9.694;2024-03-02T14:34:38;6.25;;;4.03;;